createdAt,value
2019-03-21T00:01:29.442Z,60.43
2019-03-21T00:04:06.387Z,60.32
2019-03-21T00:06:34.699Z,60.85
2019-03-21T00:09:04.036Z,60.46
2019-03-21T00:11:58.026Z,60.97
2019-03-21T00:14:42.229Z,60.90
2019-03-21T00:17:26.587Z,61.02
2019-03-21T00:19:53.014Z,60.90
2019-03-21T00:22:19.470Z,60.45
2019-03-21T00:24:45.890Z,60.82
2019-03-21T00:27:12.543Z,60.57
2019-03-21T00:29:38.955Z,60.69
2019-03-21T00:32:05.342Z,60.63
2019-03-21T00:34:32.023Z,60.95
2019-03-21T00:36:58.720Z,60.87
2019-03-21T00:39:32.705Z,60.87
2019-03-21T00:41:54.151Z,61.27
2019-03-21T00:44:20.726Z,61.17
2019-03-21T00:46:47.361Z,61.27
2019-03-21T00:49:13.761Z,61.17
2019-03-21T00:51:40.435Z,60.78
2019-03-21T00:54:06.941Z,60.82
2019-03-21T00:56:33.525Z,60.83
2019-03-21T00:59:00.140Z,60.72
2019-03-21T01:01:26.536Z,60.75
2019-03-21T01:03:53.392Z,60.40
2019-03-21T01:06:19.772Z,60.87
2019-03-21T01:08:46.498Z,61.04
2019-03-21T01:11:12.772Z,61.36
2019-03-21T01:13:39.926Z,61.33
2019-03-21T01:16:06.323Z,61.39
2019-03-21T01:18:37.568Z,61.54
2019-03-21T01:21:03.951Z,61.57
2019-03-21T01:23:30.639Z,61.68
2019-03-21T01:26:02.986Z,61.88
2019-03-21T01:28:29.403Z,62.57
2019-03-21T01:30:55.815Z,62.61
2019-03-21T01:33:22.257Z,62.77
2019-03-21T01:35:48.675Z,62.51
2019-03-21T01:38:15.058Z,62.30
2019-03-21T01:40:52.442Z,62.34
2019-03-21T01:43:19.634Z,62.30
2019-03-21T01:45:46.067Z,61.75
2019-03-21T01:48:12.760Z,61.74
2019-03-21T01:50:41.250Z,61.62
2019-03-21T01:53:08.153Z,61.30
2019-03-21T01:55:34.771Z,61.27
2019-03-21T01:58:01.215Z,61.07
2019-03-21T02:00:36.226Z,61.01
2019-03-21T02:03:03.907Z,61.10
2019-03-21T02:05:30.591Z,61.16
2019-03-21T02:07:57.313Z,61.18
2019-03-21T02:10:24.277Z,61.43
2019-03-21T02:12:50.899Z,61.38
2019-03-21T02:15:18.664Z,61.26
2019-03-21T02:17:47.311Z,61.51
2019-03-21T02:20:23.050Z,61.75
2019-03-21T02:22:49.757Z,62.20
2019-03-21T02:25:29.380Z,62.39
2019-03-21T02:27:56.116Z,62.43
2019-03-21T02:30:27.164Z,62.49
2019-03-21T02:33:04.794Z,62.51
2019-03-21T02:35:31.512Z,62.39
2019-03-21T02:37:57.997Z,62.58
2019-03-21T02:40:25.241Z,62.85
2019-03-21T02:42:51.756Z,62.94
2019-03-21T02:45:18.565Z,62.97
2019-03-21T02:47:45.459Z,62.70
2019-03-21T02:50:20.365Z,62.90
2019-03-21T02:52:46.852Z,62.89
2019-03-21T02:55:13.551Z,62.86
2019-03-21T02:57:40.298Z,63.00
2019-03-21T03:00:12.519Z,62.81
2019-03-21T03:02:39.298Z,62.95
2019-03-21T03:05:11.950Z,62.99
2019-03-21T03:07:38.500Z,62.98
2019-03-21T03:10:13.115Z,63.03
2019-03-21T03:12:39.734Z,63.31
2019-03-21T03:15:23.305Z,63.44
2019-03-21T03:17:48.593Z,63.20
2019-03-21T03:20:16.491Z,62.66
2019-03-21T03:22:43.401Z,63.05
2019-03-21T03:25:15.081Z,63.21
2019-03-21T03:27:45.028Z,63.13
2019-03-21T03:30:22.686Z,63.08
2019-03-21T03:32:49.270Z,63.31
2019-03-21T03:35:16.124Z,63.08
2019-03-21T03:37:43.711Z,63.04
2019-03-21T03:40:21.331Z,62.89
2019-03-21T03:42:47.859Z,62.98
2019-03-21T03:45:37.802Z,63.11
2019-03-21T03:48:02.412Z,63.08
2019-03-21T03:50:28.980Z,63.00
2019-03-21T03:52:55.677Z,63.10
2019-03-21T03:55:22.311Z,62.97
2019-03-21T03:57:57.316Z,62.99
2019-03-21T04:00:23.721Z,63.43
2019-03-21T04:02:53.778Z,63.62
2019-03-21T04:05:20.064Z,63.47
2019-03-21T04:07:46.718Z,63.29
2019-03-21T04:10:29.349Z,62.84
2019-03-21T04:12:55.775Z,63.08
2019-03-21T04:15:22.470Z,63.64
2019-03-21T04:17:49.350Z,63.61
2019-03-21T04:20:23.819Z,63.68
2019-03-21T04:22:50.644Z,63.64
2019-03-21T04:25:24.943Z,63.62
2019-03-21T04:27:51.466Z,63.15
2019-03-21T04:30:18.469Z,63.61
2019-03-21T04:32:44.925Z,63.55
2019-03-21T04:35:12.803Z,63.72
2019-03-21T04:37:39.301Z,63.74
2019-03-21T04:40:10.797Z,63.83
2019-03-21T04:42:37.594Z,63.05
2019-03-21T04:45:20.731Z,63.11
2019-03-21T04:47:47.191Z,63.21
2019-03-21T04:50:27.252Z,63.36
2019-03-21T04:52:53.636Z,63.48
2019-03-21T04:55:20.646Z,63.42
2019-03-21T04:57:47.335Z,63.83
2019-03-21T05:00:27.975Z,63.39
2019-03-21T05:03:04.594Z,63.80
2019-03-21T05:05:31.695Z,63.63
2019-03-21T05:07:58.140Z,64.20
2019-03-21T05:10:24.888Z,64.33
2019-03-21T05:12:51.478Z,64.51
2019-03-21T05:15:25.363Z,64.93
2019-03-21T05:18:00.059Z,64.66
2019-03-21T05:20:28.559Z,64.54
2019-03-21T05:22:56.390Z,64.58
2019-03-21T05:25:22.774Z,64.77
2019-03-21T05:27:49.677Z,64.80
2019-03-21T05:30:34.335Z,64.18
2019-03-21T05:33:00.870Z,64.28
2019-03-21T05:35:27.503Z,64.34
2019-03-21T05:37:54.006Z,64.32
2019-03-21T05:40:20.622Z,64.25
2019-03-21T05:43:04.777Z,64.12
2019-03-21T05:45:31.320Z,63.62
2019-03-21T05:47:57.823Z,63.31
2019-03-21T05:50:24.262Z,63.19
2019-03-21T05:52:50.742Z,63.09
2019-03-21T05:55:17.287Z,62.69
2019-03-21T05:57:43.674Z,62.66
2019-03-21T06:00:22.560Z,62.39
2019-03-21T06:02:49.271Z,61.99
2019-03-21T06:05:16.038Z,61.92
2019-03-21T06:07:54.463Z,61.69
2019-03-21T06:10:20.991Z,61.05
2019-03-21T06:12:47.706Z,61.01
2019-03-21T06:15:31.570Z,60.81
2019-03-21T06:18:38.482Z,60.21
2019-03-21T06:21:10.519Z,60.39
2019-03-21T06:24:00.899Z,60.58
2019-03-21T06:26:51.611Z,60.11
2019-03-21T06:29:17.935Z,60.24
2019-03-21T06:31:44.558Z,59.98
2019-03-21T06:34:11.114Z,59.56
2019-03-21T06:36:37.643Z,59.45
2019-03-21T06:39:07.771Z,59.34
2019-03-21T06:41:35.433Z,58.90
2019-03-21T06:44:02.232Z,58.82
2019-03-21T06:46:28.668Z,58.06
2019-03-21T06:48:55.057Z,58.01
2019-03-21T06:51:21.879Z,57.09
2019-03-21T06:53:48.312Z,57.06
2019-03-21T06:56:14.726Z,56.74
2019-03-21T06:58:41.159Z,56.07
2019-03-21T07:01:07.840Z,55.78
2019-03-21T07:03:34.374Z,55.94
2019-03-21T07:06:00.947Z,55.42
2019-03-21T07:08:27.360Z,55.45
2019-03-21T07:10:53.964Z,54.67
2019-03-21T07:13:20.353Z,54.24
2019-03-21T07:15:46.866Z,54.00
2019-03-21T07:18:13.490Z,53.47
2019-03-21T07:20:39.851Z,53.69
2019-03-21T07:23:06.235Z,53.73
2019-03-21T07:25:32.966Z,54.19
2019-03-21T07:27:59.806Z,53.84
2019-03-21T07:30:26.515Z,53.04
2019-03-21T07:32:53.185Z,52.45
2019-03-21T07:35:19.880Z,51.99
2019-03-21T07:37:46.197Z,51.77
2019-03-21T07:40:13.740Z,51.58
2019-03-21T07:42:40.490Z,51.28
2019-03-21T07:45:10.290Z,50.54
2019-03-21T07:47:37.311Z,49.92
2019-03-21T07:50:08.424Z,49.59
2019-03-21T07:52:34.767Z,49.10
2019-03-21T07:55:01.285Z,48.59
2019-03-21T07:57:27.783Z,47.45
2019-03-21T07:59:54.228Z,47.23
2019-03-21T08:02:20.625Z,48.18
2019-03-21T08:04:47.490Z,47.17
2019-03-21T08:07:14.001Z,46.99
2019-03-21T08:09:40.604Z,46.70
2019-03-21T08:12:07.182Z,46.85
2019-03-21T08:14:33.610Z,47.02
2019-03-21T08:17:00.004Z,46.60
2019-03-21T08:19:26.496Z,46.96
2019-03-21T08:21:53.321Z,47.33
2019-03-21T08:24:19.703Z,46.66
2019-03-21T08:26:46.150Z,47.42
2019-03-21T08:29:12.536Z,47.57
2019-03-21T08:31:38.862Z,46.69
2019-03-21T08:34:05.378Z,46.76
2019-03-21T08:36:31.894Z,47.22
2019-03-21T08:38:58.650Z,47.40
2019-03-21T08:41:25.046Z,47.35
2019-03-21T08:43:51.367Z,47.47
2019-03-21T08:46:18.136Z,47.32
2019-03-21T08:48:44.460Z,47.85
2019-03-21T08:51:11.047Z,48.32
2019-03-21T08:53:38.375Z,47.62
2019-03-21T08:56:05.076Z,47.99
2019-03-21T08:58:31.857Z,48.42
2019-03-21T09:00:59.702Z,48.44
2019-03-21T09:03:26.280Z,48.56
2019-03-21T09:05:52.818Z,49.55
2019-03-21T09:08:19.375Z,49.22
2019-03-21T09:10:45.839Z,49.15
2019-03-21T09:13:12.500Z,48.93
2019-03-21T09:15:38.909Z,49.02
2019-03-21T09:18:05.473Z,49.27
2019-03-21T09:20:32.070Z,48.83
2019-03-21T09:22:58.512Z,48.98
2019-03-21T09:25:25.081Z,49.08
2019-03-21T09:28:02.190Z,49.38
2019-03-21T09:30:20.503Z,49.07
2019-03-21T09:32:47.399Z,49.52
2019-03-21T09:35:14.083Z,49.23
2019-03-21T09:37:40.579Z,49.35
2019-03-21T09:40:10.531Z,49.19
2019-03-21T09:42:36.931Z,48.78
2019-03-21T09:45:08.641Z,49.21
2019-03-21T09:47:35.366Z,48.49
2019-03-21T09:50:05.021Z,49.18
2019-03-21T09:52:31.866Z,49.13
2019-03-21T09:54:58.652Z,49.28
2019-03-21T09:57:25.048Z,49.08
2019-03-21T09:59:51.475Z,48.93
2019-03-21T10:02:17.905Z,49.05
2019-03-21T10:04:44.451Z,48.76
2019-03-21T10:07:11.125Z,49.32
2019-03-21T10:09:37.527Z,48.89
2019-03-21T10:12:05.079Z,48.94
2019-03-21T10:14:31.483Z,48.79
2019-03-21T10:16:58.191Z,49.17
2019-03-21T10:19:24.721Z,48.87
2019-03-21T10:21:51.178Z,48.85
2019-03-21T10:24:17.611Z,48.62
2019-03-21T10:26:44.115Z,48.21
2019-03-21T10:29:11.069Z,49.01
2019-03-21T10:31:37.530Z,49.01
2019-03-21T10:34:04.150Z,48.81
2019-03-21T10:36:30.778Z,48.96
2019-03-21T10:38:57.229Z,48.96
2019-03-21T10:41:23.643Z,48.39
2019-03-21T10:43:50.186Z,48.57
2019-03-21T10:46:17.115Z,48.57
2019-03-21T10:48:43.621Z,48.01
2019-03-21T10:51:10.039Z,47.34
2019-03-21T10:53:36.730Z,46.64
2019-03-21T10:56:03.264Z,46.79
2019-03-21T10:58:29.967Z,47.06
2019-03-21T11:00:56.452Z,46.56
2019-03-21T11:03:22.930Z,46.98
2019-03-21T11:05:49.630Z,46.17
2019-03-21T11:08:16.349Z,46.31
2019-03-21T11:10:42.886Z,46.33
2019-03-21T11:13:09.291Z,46.36
2019-03-21T11:15:36.039Z,46.68
2019-03-21T11:18:03.280Z,46.10
2019-03-21T11:20:35.639Z,45.68
2019-03-21T11:23:03.963Z,46.04
2019-03-21T11:25:30.804Z,46.20
2019-03-21T11:27:57.532Z,46.05
2019-03-21T11:30:39.700Z,46.16
2019-03-21T11:33:06.499Z,46.22
2019-03-21T11:35:33.126Z,46.66
2019-03-21T11:37:59.752Z,46.83
2019-03-21T11:40:26.723Z,46.77
2019-03-21T11:42:53.119Z,46.54
2019-03-21T11:45:19.672Z,46.54
2019-03-21T11:47:46.331Z,46.64
2019-03-21T11:50:13.201Z,46.37
2019-03-21T11:52:41.061Z,46.42
2019-03-21T11:55:08.442Z,47.26
2019-03-21T11:57:34.842Z,47.06
2019-03-21T12:00:06.141Z,47.00
2019-03-21T12:02:32.541Z,47.00
2019-03-21T12:04:58.980Z,47.61
2019-03-21T12:07:25.283Z,47.77
2019-03-21T12:09:52.397Z,47.50
2019-03-21T12:12:18.985Z,47.78
2019-03-21T12:14:45.389Z,47.76
2019-03-21T12:17:12.942Z,48.06
2019-03-21T12:19:39.599Z,48.25
2019-03-21T12:22:06.122Z,48.47
2019-03-21T12:24:32.567Z,48.16
2019-03-21T12:26:59.174Z,48.65
2019-03-21T12:29:25.750Z,48.81
2019-03-21T12:31:52.151Z,49.02
2019-03-21T12:34:18.880Z,48.57
2019-03-21T12:36:45.374Z,48.80
2019-03-21T12:39:12.162Z,48.86
2019-03-21T12:41:38.680Z,48.99
2019-03-21T12:44:05.144Z,48.99
2019-03-21T12:46:31.687Z,48.68
2019-03-21T12:48:58.195Z,48.61
2019-03-21T12:51:24.900Z,49.22
2019-03-21T12:53:51.734Z,48.78
2019-03-21T12:56:18.213Z,48.83
2019-03-21T12:58:44.642Z,48.83
2019-03-21T13:01:11.135Z,48.42
2019-03-21T13:03:37.579Z,48.05
2019-03-21T13:06:04.211Z,48.21
2019-03-21T13:08:34.060Z,48.10
2019-03-21T13:11:01.110Z,48.10
2019-03-21T13:13:27.789Z,48.79
2019-03-21T13:15:54.289Z,48.20
2019-03-21T13:18:20.708Z,48.37
2019-03-21T13:20:47.184Z,48.57
2019-03-21T13:23:13.531Z,48.57
2019-03-21T13:25:40.157Z,48.83
2019-03-21T13:28:07.165Z,49.15
2019-03-21T13:30:33.971Z,48.85
2019-03-21T13:33:00.368Z,49.16
2019-03-21T13:35:32.472Z,49.81
2019-03-21T13:37:55.350Z,50.73
2019-03-21T13:40:22.015Z,51.17
2019-03-21T13:42:48.463Z,51.56
2019-03-21T13:45:15.008Z,51.50
2019-03-21T13:47:41.905Z,51.77
2019-03-21T13:50:09.011Z,51.60
2019-03-21T13:52:35.451Z,51.49
2019-03-21T13:55:06.730Z,51.72
2019-03-21T13:57:33.435Z,51.07
2019-03-21T13:59:59.959Z,50.95
2019-03-21T14:02:26.470Z,51.08
2019-03-21T14:04:53.115Z,50.81
2019-03-21T14:07:19.618Z,50.60
2019-03-21T14:09:46.251Z,50.63
2019-03-21T14:12:13.112Z,50.61
2019-03-21T14:14:39.741Z,50.73
2019-03-21T14:17:06.843Z,50.47
2019-03-21T14:19:33.415Z,51.38
2019-03-21T14:22:00.047Z,51.38
2019-03-21T14:24:26.696Z,51.26
2019-03-21T14:26:53.199Z,51.65
2019-03-21T14:29:19.864Z,51.57
2019-03-21T14:31:46.461Z,51.12
2019-03-21T14:34:12.904Z,51.28
2019-03-21T14:36:39.884Z,51.13
2019-03-21T14:39:06.511Z,51.08
2019-03-21T14:41:33.080Z,51.54
2019-03-21T14:43:59.551Z,51.59
2019-03-21T14:46:26.108Z,52.33
2019-03-21T14:48:52.495Z,52.31
2019-03-21T14:51:18.935Z,52.91
2019-03-21T14:53:45.625Z,53.27
2019-03-21T14:56:12.231Z,52.98
2019-03-21T14:58:38.739Z,53.42
2019-03-21T15:01:06.378Z,53.23
2019-03-21T15:03:32.921Z,53.67
2019-03-21T15:06:00.066Z,53.85
2019-03-21T15:08:26.547Z,54.15
2019-03-21T15:10:53.114Z,54.15
2019-03-21T15:13:19.945Z,54.60
2019-03-21T15:15:46.697Z,54.92
2019-03-21T15:18:13.282Z,54.99
2019-03-21T15:20:39.895Z,54.93
2019-03-21T15:23:06.524Z,55.27
2019-03-21T15:25:33.285Z,55.34
2019-03-21T15:27:59.819Z,55.70
2019-03-21T15:30:26.354Z,55.51
2019-03-21T15:32:52.841Z,55.14
2019-03-21T15:35:19.390Z,55.17
2019-03-21T15:37:46.027Z,55.17
2019-03-21T15:40:14.531Z,55.20
2019-03-21T15:42:41.361Z,55.40
2019-03-21T15:45:22.730Z,55.40
2019-03-21T15:47:45.893Z,54.97
2019-03-21T15:50:26.153Z,54.82
2019-03-21T15:52:53.415Z,55.56
2019-03-21T15:55:20.765Z,55.83
2019-03-21T15:57:47.493Z,55.77
2019-03-21T16:00:19.719Z,55.33
2019-03-21T16:02:46.276Z,55.05
2019-03-21T16:05:12.773Z,55.54
2019-03-21T16:07:39.282Z,55.47
2019-03-21T16:10:06.109Z,55.58
2019-03-21T16:12:32.546Z,55.88
2019-03-21T16:14:59.058Z,55.69
2019-03-21T16:17:25.455Z,55.75
2019-03-21T16:19:52.238Z,55.45
2019-03-21T16:22:18.668Z,55.68
2019-03-21T16:24:45.151Z,55.75
2019-03-21T16:27:11.595Z,55.81
2019-03-21T16:29:40.131Z,56.01
2019-03-21T16:32:06.626Z,56.43
2019-03-21T16:34:33.146Z,56.07
2019-03-21T16:36:59.714Z,56.13
2019-03-21T16:39:26.127Z,56.09
2019-03-21T16:41:52.456Z,56.17
2019-03-21T16:44:18.770Z,56.28
2019-03-21T16:46:45.100Z,56.18
2019-03-21T16:49:11.391Z,56.10
2019-03-21T16:51:37.844Z,56.25
2019-03-21T16:54:16.140Z,56.06
2019-03-21T16:56:33.039Z,56.25
2019-03-21T16:58:59.327Z,56.16
2019-03-21T17:01:25.802Z,56.07
2019-03-21T17:03:52.349Z,56.14
2019-03-21T17:06:18.878Z,56.11
2019-03-21T17:08:45.303Z,56.15
2019-03-21T17:11:11.722Z,57.14
2019-03-21T17:13:38.444Z,56.53
2019-03-21T17:16:05.851Z,56.32
2019-03-21T17:18:32.500Z,56.41
2019-03-21T17:20:58.797Z,56.22
2019-03-21T17:23:25.295Z,56.17
2019-03-21T17:25:52.143Z,56.38
2019-03-21T17:28:18.618Z,56.65
2019-03-21T17:30:45.007Z,56.72
2019-03-21T17:33:11.534Z,56.74
2019-03-21T17:35:38.130Z,56.73
2019-03-21T17:38:04.530Z,56.75
2019-03-21T17:40:30.973Z,56.89
2019-03-21T17:42:57.355Z,57.01
2019-03-21T17:45:23.784Z,57.03
2019-03-21T17:47:50.345Z,56.92
2019-03-21T17:50:17.795Z,56.96
2019-03-21T17:52:44.422Z,56.95
2019-03-21T17:55:11.843Z,56.92
2019-03-21T17:57:38.578Z,57.56
2019-03-21T18:00:16.251Z,57.24
2019-03-21T18:02:43.299Z,57.13
2019-03-21T18:05:11.607Z,57.47
2019-03-21T18:07:38.344Z,58.33
2019-03-21T18:10:26.691Z,58.39
2019-03-21T18:12:53.194Z,58.55
2019-03-21T18:15:19.724Z,58.48
2019-03-21T18:17:46.453Z,58.95
2019-03-21T18:20:12.735Z,59.12
2019-03-21T18:22:39.170Z,58.98
2019-03-21T18:25:06.209Z,59.38
2019-03-21T18:27:32.951Z,59.59
2019-03-21T18:29:59.461Z,59.41
2019-03-21T18:32:25.980Z,59.41
2019-03-21T18:34:52.369Z,59.57
2019-03-21T18:37:18.911Z,59.54
2019-03-21T18:39:45.463Z,59.50
2019-03-21T18:42:12.168Z,59.52
2019-03-21T18:44:39.002Z,59.43
2019-03-21T18:47:05.471Z,59.88
2019-03-21T18:49:31.894Z,59.91
2019-03-21T18:51:58.389Z,59.97
2019-03-21T18:54:24.911Z,59.59
2019-03-21T18:56:51.473Z,59.70
2019-03-21T18:59:17.941Z,60.38
2019-03-21T19:01:44.338Z,59.98
2019-03-21T19:04:10.839Z,60.59
2019-03-21T19:06:37.613Z,60.71
2019-03-21T19:09:06.318Z,61.28
2019-03-21T19:11:32.754Z,61.73
2019-03-21T19:13:59.243Z,61.38
2019-03-21T19:16:25.964Z,61.96
2019-03-21T19:18:52.356Z,62.39
2019-03-21T19:21:18.989Z,62.43
2019-03-21T19:23:45.617Z,62.55
2019-03-21T19:26:12.123Z,62.65
2019-03-21T19:28:38.682Z,62.81
2019-03-21T19:31:05.289Z,62.79
2019-03-21T19:33:31.936Z,63.05
2019-03-21T19:35:58.495Z,63.11
2019-03-21T19:38:24.900Z,63.08
2019-03-21T19:40:51.589Z,63.47
2019-03-21T19:43:18.027Z,63.56
2019-03-21T19:45:44.491Z,63.59
2019-03-21T19:48:10.974Z,63.92
2019-03-21T19:50:38.245Z,64.72
2019-03-21T19:53:04.819Z,64.94
2019-03-21T19:55:31.467Z,65.12
2019-03-21T19:57:58.442Z,65.27
2019-03-21T20:00:24.973Z,65.46
2019-03-21T20:02:51.483Z,65.65
2019-03-21T20:05:20.321Z,65.68
2019-03-21T20:07:47.141Z,65.85
2019-03-21T20:10:18.981Z,66.02
2019-03-21T20:12:46.038Z,65.90
2019-03-21T20:15:17.194Z,65.68
2019-03-21T20:17:43.712Z,65.80
2019-03-21T20:20:15.498Z,66.14
2019-03-21T20:22:42.083Z,66.11
2019-03-21T20:25:09.721Z,66.48
2019-03-21T20:27:36.300Z,66.77
2019-03-21T20:30:18.932Z,66.59
2019-03-21T20:32:45.636Z,66.38
2019-03-21T20:35:12.569Z,66.98
2019-03-21T20:37:39.173Z,67.17
2019-03-21T20:40:11.155Z,66.83
2019-03-21T20:42:37.862Z,67.01
2019-03-21T20:45:07.998Z,67.25
2019-03-21T20:47:35.238Z,66.99
2019-03-21T20:50:02.819Z,67.09
2019-03-21T20:52:29.224Z,67.14
2019-03-21T20:54:55.748Z,67.42
2019-03-21T20:57:22.198Z,67.42
2019-03-21T20:59:48.633Z,67.66
2019-03-21T21:02:15.457Z,67.82
2019-03-21T21:04:42.074Z,68.04
2019-03-21T21:07:08.634Z,67.88
2019-03-21T21:09:35.374Z,68.19
2019-03-21T21:12:01.798Z,68.38
2019-03-21T21:14:28.550Z,68.06
2019-03-21T21:16:55.139Z,68.25
2019-03-21T21:19:21.599Z,68.44
2019-03-21T21:21:48.036Z,68.53
2019-03-21T21:24:14.897Z,68.64
2019-03-21T21:26:41.302Z,68.32
2019-03-21T21:29:07.639Z,68.10
2019-03-21T21:31:34.193Z,67.98
2019-03-21T21:34:00.807Z,67.87
2019-03-21T21:36:27.190Z,67.81
2019-03-21T21:38:53.604Z,67.77
2019-03-21T21:41:19.998Z,67.77
2019-03-21T21:43:46.364Z,67.79
2019-03-21T21:46:12.896Z,67.55
2019-03-21T21:48:39.637Z,67.08
2019-03-21T21:51:06.139Z,66.90
2019-03-21T21:53:32.710Z,67.06
2019-03-21T21:55:59.239Z,67.15
2019-03-21T21:58:25.670Z,66.99
2019-03-21T22:00:52.558Z,66.84
2019-03-21T22:03:19.034Z,66.81
2019-03-21T22:05:45.630Z,66.58
2019-03-21T22:08:12.044Z,66.46
2019-03-21T22:10:38.657Z,66.43
2019-03-21T22:13:05.156Z,66.70
2019-03-21T22:15:31.622Z,66.94
2019-03-21T22:17:58.047Z,67.21
2019-03-21T22:20:24.435Z,67.22
2019-03-21T22:22:50.920Z,67.27
2019-03-21T22:25:17.487Z,66.86
2019-03-21T22:27:43.911Z,66.71
2019-03-21T22:30:16.719Z,66.89
2019-03-21T22:32:43.552Z,67.06
2019-03-21T22:35:10.424Z,66.79
2019-03-21T22:37:37.261Z,66.76
2019-03-21T22:40:07.740Z,67.05
2019-03-21T22:42:34.272Z,66.79
2019-03-21T22:45:00.667Z,66.63
2019-03-21T22:47:27.159Z,66.67
2019-03-21T22:49:53.555Z,66.85
2019-03-21T22:52:20.302Z,66.83
2019-03-21T22:54:46.799Z,66.75
2019-03-21T22:57:13.218Z,66.92
2019-03-21T22:59:39.534Z,66.92
2019-03-21T23:02:06.469Z,66.98
2019-03-21T23:04:33.466Z,67.09
2019-03-21T23:07:00.278Z,67.19
2019-03-21T23:09:26.819Z,66.85
2019-03-21T23:11:53.256Z,66.85
2019-03-21T23:14:19.555Z,66.81
2019-03-21T23:16:46.017Z,66.82
2019-03-21T23:19:12.499Z,67.14
2019-03-21T23:21:38.935Z,67.44
2019-03-21T23:24:05.683Z,67.43
2019-03-21T23:26:32.091Z,67.76
2019-03-21T23:28:58.742Z,68.08
2019-03-21T23:31:25.378Z,67.77
2019-03-21T23:33:51.790Z,67.68
2019-03-21T23:36:18.187Z,67.63
2019-03-21T23:38:44.759Z,67.61
2019-03-21T23:41:11.143Z,67.60
2019-03-21T23:43:37.563Z,67.92
2019-03-21T23:46:04.047Z,67.90
2019-03-21T23:48:30.512Z,67.97
2019-03-21T23:50:57.189Z,67.95
2019-03-21T23:53:23.927Z,67.96
2019-03-21T23:55:50.342Z,68.03
2019-03-21T23:58:16.826Z,68.28
